sensor_id;sensor_type;location;lat;lon;timestamp;pressure;altitude;pressure_sealevel;temperature;humidity
75013;BME280;63567;49.956;20.130;2024-02-28T00:00:56;96954.22;;;13.24;70.16
75013;BME280;63567;49.956;20.130;2024-02-28T00:03:21;96958.91;;;13.22;70.35
75013;BME280;63567;49.956;20.130;2024-02-28T00:05:49;96952.41;;;13.18;70.30
75013;BME280;63567;49.956;20.130;2024-02-28T00:08:14;96962.00;;;13.19;70.34
75013;BME280;63567;49.956;20.130;2024-02-28T00:10:39;96959.75;;;13.16;70.38
75013;BME280;63567;49.956;20.130;2024-02-28T00:13:04;96968.09;;;13.13;70.58
75013;BME280;63567;49.956;20.130;2024-02-28T00:15:30;96965.88;;;13.10;70.65
75013;BME280;63567;49.956;20.130;2024-02-28T00:17:55;96966.28;;;13.07;70.73
75013;BME280;63567;49.956;20.130;2024-02-28T00:20:20;96970.94;;;13.05;70.98
75013;BME280;63567;49.956;20.130;2024-02-28T00:22:45;96974.81;;;13.02;70.82
75013;BME280;63567;49.956;20.130;2024-02-28T00:25:11;96963.63;;;13.00;70.83
75013;BME280;63567;49.956;20.130;2024-02-28T00:27:37;96960.56;;;12.97;71.11
75013;BME280;63567;49.956;20.130;2024-02-28T00:30:03;96964.44;;;12.94;71.06
75013;BME280;63567;49.956;20.130;2024-02-28T00:32:32;96968.94;;;12.93;71.37
75013;BME280;63567;49.956;20.130;2024-02-28T00:34:57;96962.03;;;12.92;71.51
75013;BME280;63567;49.956;20.130;2024-02-28T00:37:23;96968.50;;;12.90;71.26
75013;BME280;63567;49.956;20.130;2024-02-28T00:39:49;96960.59;;;12.90;70.97
75013;BME280;63567;49.956;20.130;2024-02-28T00:42:14;96954.91;;;12.86;70.94
75013;BME280;63567;49.956;20.130;2024-02-28T00:44:40;96959.16;;;12.87;70.96
75013;BME280;63567;49.956;20.130;2024-02-28T00:47:07;96964.47;;;12.87;70.96
75013;BME280;63567;49.956;20.130;2024-02-28T00:49:33;96949.22;;;12.83;70.78
75013;BME280;63567;49.956;20.130;2024-02-28T00:51:58;96949.81;;;12.85;70.66
75013;BME280;63567;49.956;20.130;2024-02-28T00:54:23;96950.00;;;12.83;70.75
75013;BME280;63567;49.956;20.130;2024-02-28T00:56:50;96952.66;;;12.83;70.78
75013;BME280;63567;49.956;20.130;2024-02-28T00:59:16;96951.03;;;12.82;70.84
75013;BME280;63567;49.956;20.130;2024-02-28T01:01:41;96945.97;;;12.81;71.11
75013;BME280;63567;49.956;20.130;2024-02-28T01:04:06;96939.88;;;12.80;70.98
75013;BME280;63567;49.956;20.130;2024-02-28T01:06:32;96954.91;;;12.80;71.09
75013;BME280;63567;49.956;20.130;2024-02-28T01:08:58;96939.66;;;12.68;70.96
75013;BME280;63567;49.956;20.130;2024-02-28T01:11:24;96956.94;;;12.78;71.17
75013;BME280;63567;49.956;20.130;2024-02-28T01:13:49;96950.81;;;12.77;71.16
75013;BME280;63567;49.956;20.130;2024-02-28T01:16:14;96955.31;;;12.77;70.79
75013;BME280;63567;49.956;20.130;2024-02-28T01:18:40;96961.63;;;12.76;70.85
75013;BME280;63567;49.956;20.130;2024-02-28T01:21:05;96956.34;;;12.76;71.09
75013;BME280;63567;49.956;20.130;2024-02-28T01:23:30;96960.78;;;12.75;71.20
75013;BME280;63567;49.956;20.130;2024-02-28T01:25:56;96961.81;;;12.74;71.02
75013;BME280;63567;49.956;20.130;2024-02-28T01:28:21;96962.44;;;12.76;71.15
75013;BME280;63567;49.956;20.130;2024-02-28T01:30:48;96961.81;;;12.74;71.24
75013;BME280;63567;49.956;20.130;2024-02-28T01:33:13;96963.44;;;12.75;71.23
75013;BME280;63567;49.956;20.130;2024-02-28T01:35:39;96959.59;;;12.71;71.15
75013;BME280;63567;49.956;20.130;2024-02-28T01:38:04;96967.31;;;12.72;71.33
75013;BME280;63567;49.956;20.130;2024-02-28T01:40:29;96960.22;;;12.73;71.78
75013;BME280;63567;49.956;20.130;2024-02-28T01:42:54;96963.44;;;12.68;71.45
75013;BME280;63567;49.956;20.130;2024-02-28T01:45:20;96970.16;;;12.71;71.30
75013;BME280;63567;49.956;20.130;2024-02-28T01:47:45;96962.25;;;12.71;71.52
75013;BME280;63567;49.956;20.130;2024-02-28T01:50:11;96967.72;;;12.69;71.72
75013;BME280;63567;49.956;20.130;2024-02-28T01:52:38;96962.81;;;12.66;71.93
75013;BME280;63567;49.956;20.130;2024-02-28T01:55:04;96971.38;;;12.68;72.23
75013;BME280;63567;49.956;20.130;2024-02-28T01:57:31;96955.13;;;12.65;72.59
75013;BME280;63567;49.956;20.130;2024-02-28T01:59:57;96958.38;;;12.67;72.15
75013;BME280;63567;49.956;20.130;2024-02-28T02:02:23;96948.00;;;12.65;72.23
75013;BME280;63567;49.956;20.130;2024-02-28T02:04:48;96946.38;;;12.64;72.27
75013;BME280;63567;49.956;20.130;2024-02-28T02:07:13;96945.16;;;12.67;72.15
75013;BME280;63567;49.956;20.130;2024-02-28T02:09:39;96942.72;;;12.65;72.29
75013;BME280;63567;49.956;20.130;2024-02-28T02:12:04;96940.50;;;12.62;72.54
75013;BME280;63567;49.956;20.130;2024-02-28T02:14:29;96943.31;;;12.61;72.41
75013;BME280;63567;49.956;20.130;2024-02-28T02:16:55;96947.81;;;12.60;72.57
75013;BME280;63567;49.956;20.130;2024-02-28T02:19:20;96947.81;;;12.60;72.76
75013;BME280;63567;49.956;20.130;2024-02-28T02:21:57;96946.97;;;12.60;72.58
75013;BME280;63567;49.956;20.130;2024-02-28T02:24:23;96946.16;;;12.59;72.67
75013;BME280;63567;49.956;20.130;2024-02-28T02:26:48;96957.53;;;12.60;72.83
75013;BME280;63567;49.956;20.130;2024-02-28T02:29:16;96949.22;;;12.56;73.11
75013;BME280;63567;49.956;20.130;2024-02-28T02:31:41;96951.06;;;12.56;73.81
75013;BME280;63567;49.956;20.130;2024-02-28T02:34:07;96947.38;;;12.57;73.88
75013;BME280;63567;49.956;20.130;2024-02-28T02:36:32;96947.38;;;12.57;73.59
75013;BME280;63567;49.956;20.130;2024-02-28T02:38:58;96946.78;;;12.54;73.42
75013;BME280;63567;49.956;20.130;2024-02-28T02:41:23;96947.81;;;12.53;73.21
75013;BME280;63567;49.956;20.130;2024-02-28T02:43:48;96944.75;;;12.50;73.39
75013;BME280;63567;49.956;20.130;2024-02-28T02:46:13;96952.88;;;12.48;73.77
75013;BME280;63567;49.956;20.130;2024-02-28T02:48:39;96959.19;;;12.47;74.42
75013;BME280;63567;49.956;20.130;2024-02-28T02:51:04;96956.91;;;12.44;74.82
75013;BME280;63567;49.956;20.130;2024-02-28T02:53:29;96952.06;;;12.41;75.14
75013;BME280;63567;49.956;20.130;2024-02-28T02:55:54;96953.28;;;12.39;75.36
75013;BME280;63567;49.956;20.130;2024-02-28T02:58:20;96958.75;;;12.37;76.03
75013;BME280;63567;49.956;20.130;2024-02-28T03:00:45;96956.53;;;12.34;75.57
75013;BME280;63567;49.956;20.130;2024-02-28T03:03:10;96960.16;;;12.33;76.00
75013;BME280;63567;49.956;20.130;2024-02-28T03:05:35;96958.56;;;12.32;76.01
75013;BME280;63567;49.956;20.130;2024-02-28T03:08:01;96956.09;;;12.30;75.94
75013;BME280;63567;49.956;20.130;2024-02-28T03:10:26;96959.53;;;12.31;75.40
75013;BME280;63567;49.956;20.130;2024-02-28T03:12:51;96948.97;;;12.31;75.70
75013;BME280;63567;49.956;20.130;2024-02-28T03:15:17;96953.47;;;12.30;75.79
75013;BME280;63567;49.956;20.130;2024-02-28T03:17:42;96954.25;;;12.31;75.26
75013;BME280;63567;49.956;20.130;2024-02-28T03:20:07;96950.00;;;12.30;74.81
75013;BME280;63567;49.956;20.130;2024-02-28T03:22:33;96954.47;;;12.29;74.55
75013;BME280;63567;49.956;20.130;2024-02-28T03:24:58;96954.69;;;12.28;74.52
75013;BME280;63567;49.956;20.130;2024-02-28T03:27:23;96955.91;;;12.25;74.43
75013;BME280;63567;49.956;20.130;2024-02-28T03:29:49;96961.38;;;12.24;74.34
75013;BME280;63567;49.956;20.130;2024-02-28T03:32:14;96960.56;;;12.23;74.54
75013;BME280;63567;49.956;20.130;2024-02-28T03:34:39;96963.22;;;12.23;74.31
75013;BME280;63567;49.956;20.130;2024-02-28T03:37:04;96972.13;;;12.22;74.55
75013;BME280;63567;49.956;20.130;2024-02-28T03:39:30;96964.41;;;12.21;74.55
75013;BME280;63567;49.956;20.130;2024-02-28T03:41:55;96963.59;;;12.20;74.50
75013;BME280;63567;49.956;20.130;2024-02-28T03:44:21;96964.41;;;12.21;74.91
75013;BME280;63567;49.956;20.130;2024-02-28T03:46:46;96969.28;;;12.17;74.96
75013;BME280;63567;49.956;20.130;2024-02-28T03:49:12;96977.81;;;12.19;75.18
75013;BME280;63567;49.956;20.130;2024-02-28T03:51:40;96976.41;;;12.17;75.27
75013;BME280;63567;49.956;20.130;2024-02-28T03:54:06;96983.50;;;12.16;75.38
75013;BME280;63567;49.956;20.130;2024-02-28T03:56:31;96985.31;;;12.16;75.63
75013;BME280;63567;49.956;20.130;2024-02-28T03:58:56;96980.84;;;12.16;75.24
75013;BME280;63567;49.956;20.130;2024-02-28T04:01:22;96983.50;;;12.16;75.33
75013;BME280;63567;49.956;20.130;2024-02-28T04:03:47;96981.06;;;12.15;75.32
75013;BME280;63567;49.956;20.130;2024-02-28T04:06:12;96980.03;;;12.16;75.39
75013;BME280;63567;49.956;20.130;2024-02-28T04:08:37;96980.44;;;12.12;75.26
75013;BME280;63567;49.956;20.130;2024-02-28T04:11:03;96986.53;;;12.13;75.06
75013;BME280;63567;49.956;20.130;2024-02-28T04:13:28;96980.22;;;12.14;75.16
75013;BME280;63567;49.956;20.130;2024-02-28T04:15:53;96983.72;;;12.15;74.84
75013;BME280;63567;49.956;20.130;2024-02-28T04:18:19;96981.44;;;12.11;74.85
75013;BME280;63567;49.956;20.130;2024-02-28T04:20:44;96982.06;;;12.13;74.60
75013;BME280;63567;49.956;20.130;2024-02-28T04:23:09;96985.50;;;12.14;74.27
75013;BME280;63567;49.956;20.130;2024-02-28T04:25:35;96982.88;;;12.14;74.15
75013;BME280;63567;49.956;20.130;2024-02-28T04:28:01;96981.25;;;12.13;74.19
75013;BME280;63567;49.956;20.130;2024-02-28T04:30:26;96985.72;;;12.12;73.84
75013;BME280;63567;49.956;20.130;2024-02-28T04:32:51;96985.72;;;12.12;74.06
75013;BME280;63567;49.956;20.130;2024-02-28T04:35:17;96984.09;;;12.11;74.13
75013;BME280;63567;49.956;20.130;2024-02-28T04:37:44;96995.47;;;12.12;73.99
75013;BME280;63567;49.956;20.130;2024-02-28T04:40:10;96988.38;;;12.12;74.16
75013;BME280;63567;49.956;20.130;2024-02-28T04:42:35;96991.19;;;12.11;74.14
75013;BME280;63567;49.956;20.130;2024-02-28T04:45:00;96981.84;;;12.08;74.34
75013;BME280;63567;49.956;20.130;2024-02-28T04:47:26;96982.47;;;12.10;74.72
75013;BME280;63567;49.956;20.130;2024-02-28T04:49:51;96981.63;;;12.10;74.93
75013;BME280;63567;49.956;20.130;2024-02-28T04:52:16;96985.13;;;12.10;75.11
75013;BME280;63567;49.956;20.130;2024-02-28T04:54:41;96992.81;;;12.12;74.98
75013;BME280;63567;49.956;20.130;2024-02-28T04:57:07;96991.81;;;12.13;75.07
75013;BME280;63567;49.956;20.130;2024-02-28T04:59:32;96989.97;;;12.13;75.13
75013;BME280;63567;49.956;20.130;2024-02-28T05:01:57;96989.00;;;12.15;75.41
75013;BME280;63567;49.956;20.130;2024-02-28T05:04:22;96988.16;;;12.14;75.51
75013;BME280;63567;49.956;20.130;2024-02-28T05:06:48;96994.28;;;12.15;75.27
75013;BME280;63567;49.956;20.130;2024-02-28T05:09:14;96987.97;;;12.16;75.25
75013;BME280;63567;49.956;20.130;2024-02-28T05:11:39;96998.53;;;12.16;75.02
75013;BME280;63567;49.956;20.130;2024-02-28T05:14:04;96999.34;;;12.16;75.21
75013;BME280;63567;49.956;20.130;2024-02-28T05:16:30;96996.91;;;12.15;75.01
75013;BME280;63567;49.956;20.130;2024-02-28T05:18:55;97005.84;;;12.13;74.89
75013;BME280;63567;49.956;20.130;2024-02-28T05:21:20;96999.75;;;12.13;74.85
75013;BME280;63567;49.956;20.130;2024-02-28T05:23:45;97006.84;;;12.12;74.88
75013;BME280;63567;49.956;20.130;2024-02-28T05:26:11;97011.53;;;12.10;75.10
75013;BME280;63567;49.956;20.130;2024-02-28T05:28:36;97007.25;;;12.09;75.00
75013;BME280;63567;49.956;20.130;2024-02-28T05:31:02;97019.81;;;12.07;75.02
75013;BME280;63567;49.956;20.130;2024-02-28T05:33:43;97022.06;;;12.04;74.82
75013;BME280;63567;49.956;20.130;2024-02-28T05:36:09;97017.38;;;11.99;75.02
75013;BME280;63567;49.956;20.130;2024-02-28T05:38:34;97018.19;;;12.00;75.28
75013;BME280;63567;49.956;20.130;2024-02-28T05:41:00;97029.75;;;11.99;75.50
75013;BME280;63567;49.956;20.130;2024-02-28T05:43:25;97020.41;;;11.96;75.86
75013;BME280;63567;49.956;20.130;2024-02-28T05:45:52;97031.13;;;11.95;75.60
75013;BME280;63567;49.956;20.130;2024-02-28T05:48:17;97029.72;;;11.92;75.74
75013;BME280;63567;49.956;20.130;2024-02-28T05:50:43;97042.91;;;11.92;75.95
75013;BME280;63567;49.956;20.130;2024-02-28T05:53:09;97030.75;;;11.91;75.95
75013;BME280;63567;49.956;20.130;2024-02-28T05:55:34;97030.13;;;11.89;75.93
75013;BME280;63567;49.956;20.130;2024-02-28T05:57:59;97034.59;;;11.88;75.84
75013;BME280;63567;49.956;20.130;2024-02-28T06:00:24;97035.56;;;11.87;75.91
75013;BME280;63567;49.956;20.130;2024-02-28T06:02:49;97036.41;;;11.88;75.69
75013;BME280;63567;49.956;20.130;2024-02-28T06:05:15;97044.50;;;11.86;75.67
75013;BME280;63567;49.956;20.130;2024-02-28T06:07:40;97042.84;;;11.85;75.59
75013;BME280;63567;49.956;20.130;2024-02-28T06:10:05;97035.75;;;11.86;75.47
75013;BME280;63567;49.956;20.130;2024-02-28T06:12:31;97046.31;;;11.86;75.58
75013;BME280;63567;49.956;20.130;2024-02-28T06:14:56;97041.03;;;11.86;75.56
75013;BME280;63567;49.956;20.130;2024-02-28T06:17:21;97045.31;;;11.87;75.48
75013;BME280;63567;49.956;20.130;2024-02-28T06:19:47;97047.94;;;11.87;75.64
75013;BME280;63567;49.956;20.130;2024-02-28T06:22:12;97055.88;;;11.87;75.80
75013;BME280;63567;49.956;20.130;2024-02-28T06:24:38;97057.50;;;11.88;76.01
75013;BME280;63567;49.956;20.130;2024-02-28T06:27:04;97055.50;;;11.90;76.26
75013;BME280;63567;49.956;20.130;2024-02-28T06:29:30;97063.41;;;11.90;76.29
75013;BME280;63567;49.956;20.130;2024-02-28T06:31:55;97064.84;;;11.92;76.54
75013;BME280;63567;49.956;20.130;2024-02-28T06:34:21;97067.47;;;11.92;76.63
75013;BME280;63567;49.956;20.130;2024-02-28T06:36:47;97069.13;;;11.94;76.64
75013;BME280;63567;49.956;20.130;2024-02-28T06:39:13;97070.75;;;11.95;76.91
75013;BME280;63567;49.956;20.130;2024-02-28T06:41:38;97070.56;;;11.96;76.93
75013;BME280;63567;49.956;20.130;2024-02-28T06:44:03;97057.16;;;11.98;77.24
75013;BME280;63567;49.956;20.130;2024-02-28T06:46:29;97067.53;;;11.99;77.11
75013;BME280;63567;49.956;20.130;2024-02-28T06:48:54;97069.16;;;12.00;77.52
75013;BME280;63567;49.956;20.130;2024-02-28T06:51:19;97073.41;;;12.01;77.66
75013;BME280;63567;49.956;20.130;2024-02-28T06:53:44;97075.25;;;12.01;77.64
75013;BME280;63567;49.956;20.130;2024-02-28T06:56:10;97076.88;;;12.02;77.65
75013;BME280;63567;49.956;20.130;2024-02-28T06:58:36;97082.78;;;12.04;77.46
75013;BME280;63567;49.956;20.130;2024-02-28T07:01:01;97087.03;;;12.05;77.38
75013;BME280;63567;49.956;20.130;2024-02-28T07:03:26;97087.66;;;12.07;77.38
75013;BME280;63567;49.956;20.130;2024-02-28T07:05:52;97090.31;;;12.07;77.64
75013;BME280;63567;49.956;20.130;2024-02-28T07:08:18;97082.19;;;12.08;77.33
75013;BME280;63567;49.956;20.130;2024-02-28T07:10:44;97082.41;;;12.13;77.41
75013;BME280;63567;49.956;20.130;2024-02-28T07:13:12;97082.22;;;12.15;77.59
75013;BME280;63567;49.956;20.130;2024-02-28T07:15:38;97084.69;;;12.17;77.53
75013;BME280;63567;49.956;20.130;2024-02-28T07:18:05;97081.81;;;12.18;77.15
75013;BME280;63567;49.956;20.130;2024-02-28T07:20:30;97080.81;;;12.19;77.52
75013;BME280;63567;49.956;20.130;2024-02-28T07:22:55;97081.22;;;12.23;77.34
75013;BME280;63567;49.956;20.130;2024-02-28T07:25:20;97077.59;;;12.24;77.05
75013;BME280;63567;49.956;20.130;2024-02-28T07:27:47;97085.09;;;12.27;76.91
75013;BME280;63567;49.956;20.130;2024-02-28T07:30:12;97090.63;;;12.32;76.54
75013;BME280;63567;49.956;20.130;2024-02-28T07:32:38;97080.88;;;12.32;76.32
75013;BME280;63567;49.956;20.130;2024-02-28T07:35:04;97087.38;;;12.37;75.96
75013;BME280;63567;49.956;20.130;2024-02-28T07:37:29;97089.81;;;12.38;76.14
75013;BME280;63567;49.956;20.130;2024-02-28T07:39:54;97088.41;;;12.42;76.25
75013;BME280;63567;49.956;20.130;2024-02-28T07:42:19;97088.03;;;12.45;76.13
75013;BME280;63567;49.956;20.130;2024-02-28T07:44:45;97096.56;;;12.47;76.14
75013;BME280;63567;49.956;20.130;2024-02-28T07:47:10;97100.63;;;12.50;76.16
75013;BME280;63567;49.956;20.130;2024-02-28T07:49:35;97096.78;;;12.52;76.19
75013;BME280;63567;49.956;20.130;2024-02-28T07:52:00;97098.19;;;12.55;75.98
75013;BME280;63567;49.956;20.130;2024-02-28T07:54:26;97100.66;;;12.57;75.56
75013;BME280;63567;49.956;20.130;2024-02-28T07:56:52;97101.88;;;12.61;75.99
75013;BME280;63567;49.956;20.130;2024-02-28T07:59:18;97098.84;;;12.64;76.03
75013;BME280;63567;49.956;20.130;2024-02-28T08:01:43;97103.75;;;12.67;75.92
75013;BME280;63567;49.956;20.130;2024-02-28T08:04:10;97100.06;;;12.68;75.92
75013;BME280;63567;49.956;20.130;2024-02-28T08:06:35;97101.72;;;12.69;75.93
75013;BME280;63567;49.956;20.130;2024-02-28T08:09:00;97102.09;;;12.72;76.20
75013;BME280;63567;49.956;20.130;2024-02-28T08:11:25;97107.22;;;12.74;75.81
75013;BME280;63567;49.956;20.130;2024-02-28T08:13:51;97098.84;;;12.77;76.01
75013;BME280;63567;49.956;20.130;2024-02-28T08:16:17;97101.50;;;12.77;76.11
75013;BME280;63567;49.956;20.130;2024-02-28T08:18:42;97101.31;;;12.79;76.02
75013;BME280;63567;49.956;20.130;2024-02-28T08:21:08;97100.31;;;12.80;76.20
75013;BME280;63567;49.956;20.130;2024-02-28T08:23:34;97103.34;;;12.83;76.10
75013;BME280;63567;49.956;20.130;2024-02-28T08:25:59;97095.66;;;12.82;76.17
75013;BME280;63567;49.956;20.130;2024-02-28T08:28:25;97097.88;;;12.85;76.01
75013;BME280;63567;49.956;20.130;2024-02-28T08:30:50;97103.16;;;12.85;76.03
75013;BME280;63567;49.956;20.130;2024-02-28T08:33:16;97111.09;;;12.85;75.78
75013;BME280;63567;49.956;20.130;2024-02-28T08:35:41;97120.84;;;12.84;75.84
75013;BME280;63567;49.956;20.130;2024-02-28T08:38:08;97115.75;;;12.83;75.62
75013;BME280;63567;49.956;20.130;2024-02-28T08:40:33;97116.78;;;12.82;75.62
75013;BME280;63567;49.956;20.130;2024-02-28T08:42:58;97113.31;;;12.81;75.57
75013;BME280;63567;49.956;20.130;2024-02-28T08:45:23;97117.59;;;12.82;75.71
75013;BME280;63567;49.956;20.130;2024-02-28T08:47:48;97120.25;;;12.82;75.74
75013;BME280;63567;49.956;20.130;2024-02-28T08:50:14;97120.06;;;12.84;75.81
75013;BME280;63567;49.956;20.130;2024-02-28T08:52:39;97109.47;;;12.84;75.88
75013;BME280;63567;49.956;20.130;2024-02-28T08:55:05;97116.19;;;12.86;76.06
75013;BME280;63567;49.956;20.130;2024-02-28T08:57:30;97112.72;;;12.86;75.98
75013;BME280;63567;49.956;20.130;2024-02-28T08:59:55;97115.16;;;12.87;75.87
75013;BME280;63567;49.956;20.130;2024-02-28T09:02:21;97113.75;;;12.91;75.74
75013;BME280;63567;49.956;20.130;2024-02-28T09:04:47;97114.38;;;12.93;75.92
75013;BME280;63567;49.956;20.130;2024-02-28T09:07:17;97107.03;;;12.95;75.86
75013;BME280;63567;49.956;20.130;2024-02-28T09:09:44;97112.75;;;12.99;76.17
75013;BME280;63567;49.956;20.130;2024-02-28T09:12:10;97114.19;;;13.02;76.57
75013;BME280;63567;49.956;20.130;2024-02-28T09:14:35;97115.41;;;13.06;76.15
75013;BME280;63567;49.956;20.130;2024-02-28T09:17:00;97120.28;;;13.09;75.92
75013;BME280;63567;49.956;20.130;2024-02-28T09:19:29;97115.41;;;13.12;75.93
75013;BME280;63567;49.956;20.130;2024-02-28T09:21:54;97131.47;;;13.18;75.83
75013;BME280;63567;49.956;20.130;2024-02-28T09:24:19;97125.56;;;13.22;75.66
75013;BME280;63567;49.956;20.130;2024-02-28T09:26:45;97119.06;;;13.25;75.56
75013;BME280;63567;49.956;20.130;2024-02-28T09:29:10;97121.97;;;13.30;75.56
75013;BME280;63567;49.956;20.130;2024-02-28T09:31:35;97122.34;;;13.33;75.39
75013;BME280;63567;49.956;20.130;2024-02-28T09:34:00;97128.69;;;13.39;75.04
75013;BME280;63567;49.956;20.130;2024-02-28T09:36:31;97117.47;;;13.44;75.25
75013;BME280;63567;49.956;20.130;2024-02-28T09:38:56;97121.16;;;13.49;75.12
75013;BME280;63567;49.956;20.130;2024-02-28T09:41:21;97128.47;;;13.54;75.14
75013;BME280;63567;49.956;20.130;2024-02-28T09:43:48;97125.00;;;13.60;74.78
75013;BME280;63567;49.956;20.130;2024-02-28T09:46:14;97129.69;;;13.65;74.40
75013;BME280;63567;49.956;20.130;2024-02-28T09:48:40;97126.41;;;13.69;73.77
75013;BME280;63567;49.956;20.130;2024-02-28T09:51:08;97129.47;;;13.73;74.00
75013;BME280;63567;49.956;20.130;2024-02-28T09:53:35;97134.16;;;13.77;73.85
75013;BME280;63567;49.956;20.130;2024-02-28T09:56:00;97135.38;;;13.82;73.50
75013;BME280;63567;49.956;20.130;2024-02-28T09:58:27;97130.47;;;13.85;73.35
75013;BME280;63567;49.956;20.130;2024-02-28T10:00:56;97133.31;;;13.90;73.03
75013;BME280;63567;49.956;20.130;2024-02-28T10:03:24;97135.97;;;13.97;72.78
75013;BME280;63567;49.956;20.130;2024-02-28T10:05:50;97135.53;;;14.00;72.55
75013;BME280;63567;49.956;20.130;2024-02-28T10:08:15;97146.09;;;14.07;72.31
75013;BME280;63567;49.956;20.130;2024-02-28T10:10:50;97141.22;;;14.10;72.14
75013;BME280;63567;49.956;20.130;2024-02-28T10:13:19;97142.44;;;14.14;72.14
75013;BME280;63567;49.956;20.130;2024-02-28T10:15:45;97141.19;;;14.17;71.89
75013;BME280;63567;49.956;20.130;2024-02-28T10:18:10;97147.28;;;14.24;71.82
75013;BME280;63567;49.956;20.130;2024-02-28T10:20:36;97149.31;;;14.29;71.84
75013;BME280;63567;49.956;20.130;2024-02-28T10:23:05;97147.88;;;14.33;71.76
75013;BME280;63567;49.956;20.130;2024-02-28T10:25:52;97152.75;;;14.36;72.00
75013;BME280;63567;49.956;20.130;2024-02-28T10:28:17;97151.72;;;14.37;71.98
75013;BME280;63567;49.956;20.130;2024-02-28T10:30:43;97143.97;;;14.42;72.12
75013;BME280;63567;49.956;20.130;2024-02-28T10:33:12;97146.41;;;14.44;71.43
75013;BME280;63567;49.956;20.130;2024-02-28T10:35:39;97156.59;;;14.47;71.88
75013;BME280;63567;49.956;20.130;2024-02-28T10:38:05;97149.25;;;14.49;71.81
75013;BME280;63567;49.956;20.130;2024-02-28T10:40:31;97147.22;;;14.51;71.67
75013;BME280;63567;49.956;20.130;2024-02-28T10:42:57;97150.44;;;14.53;71.65
75013;BME280;63567;49.956;20.130;2024-02-28T10:45:24;97147.41;;;14.56;71.78
75013;BME280;63567;49.956;20.130;2024-02-28T10:47:51;97150.47;;;14.60;71.58
75013;BME280;63567;49.956;20.130;2024-02-28T10:50:17;97148.41;;;14.62;71.59
75013;BME280;63567;49.956;20.130;2024-02-28T10:52:45;97144.72;;;14.63;71.44
75013;BME280;63567;49.956;20.130;2024-02-28T10:55:13;97149.59;;;14.66;71.12
75013;BME280;63567;49.956;20.130;2024-02-28T10:57:39;97155.75;;;14.66;71.13
75013;BME280;63567;49.956;20.130;2024-02-28T11:00:05;97152.84;;;14.68;70.89
75013;BME280;63567;49.956;20.130;2024-02-28T11:02:31;97142.47;;;14.66;70.70
75013;BME280;63567;49.956;20.130;2024-02-28T11:04:57;97143.88;;;14.69;70.93
75013;BME280;63567;49.956;20.130;2024-02-28T11:07:25;97140.44;;;14.68;70.69
75013;BME280;63567;49.956;20.130;2024-02-28T11:09:54;97148.56;;;14.73;70.74
75013;BME280;63567;49.956;20.130;2024-02-28T11:12:24;97150.19;;;14.68;70.83
75013;BME280;63567;49.956;20.130;2024-02-28T11:17:27;97163.66;;;14.73;71.03
75013;BME280;63567;49.956;20.130;2024-02-28T11:19:53;97157.91;;;14.76;70.58
75013;BME280;63567;49.956;20.130;2024-02-28T11:22:20;97150.16;;;14.74;70.48
75013;BME280;63567;49.956;20.130;2024-02-28T11:24:46;97159.13;;;14.80;70.55
75013;BME280;63567;49.956;20.130;2024-02-28T11:27:12;97158.09;;;14.81;70.57
75013;BME280;63567;49.956;20.130;2024-02-28T11:29:40;97155.03;;;14.84;70.83
75013;BME280;63567;49.956;20.130;2024-02-28T11:32:06;97150.53;;;14.85;70.71
75013;BME280;63567;49.956;20.130;2024-02-28T11:34:34;97155.63;;;14.86;70.51
75013;BME280;63567;49.956;20.130;2024-02-28T11:36:59;97159.69;;;14.89;70.60
75013;BME280;63567;49.956;20.130;2024-02-28T11:39:24;97166.22;;;14.93;70.54
75013;BME280;63567;49.956;20.130;2024-02-28T11:41:51;97162.31;;;14.95;70.60
75013;BME280;63567;49.956;20.130;2024-02-28T11:44:18;97164.56;;;14.98;70.68
75013;BME280;63567;49.956;20.130;2024-02-28T11:46:48;97164.91;;;15.02;70.76
75013;BME280;63567;49.956;20.130;2024-02-28T11:49:14;97159.22;;;15.05;70.62
75013;BME280;63567;49.956;20.130;2024-02-28T11:51:41;97160.19;;;15.11;70.26
75013;BME280;63567;49.956;20.130;2024-02-28T11:54:08;97165.66;;;15.16;70.13
75013;BME280;63567;49.956;20.130;2024-02-28T11:56:36;97162.56;;;15.19;70.16
75013;BME280;63567;49.956;20.130;2024-02-28T11:59:01;97163.78;;;15.23;70.24
75013;BME280;63567;49.956;20.130;2024-02-28T12:01:38;97158.88;;;15.27;70.31
75013;BME280;63567;49.956;20.130;2024-02-28T12:04:06;97153.13;;;15.30;69.82
75013;BME280;63567;49.956;20.130;2024-02-28T12:06:34;97161.22;;;15.35;70.03
75013;BME280;63567;49.956;20.130;2024-02-28T12:08:59;97163.25;;;15.39;69.81
75013;BME280;63567;49.956;20.130;2024-02-28T12:11:25;97163.44;;;15.45;69.10
75013;BME280;63567;49.956;20.130;2024-02-28T12:13:54;97153.41;;;15.47;69.00
75013;BME280;63567;49.956;20.130;2024-02-28T12:16:23;97151.34;;;15.49;69.35
75013;BME280;63567;49.956;20.130;2024-02-28T12:18:49;97160.50;;;15.53;69.59
75013;BME280;63567;49.956;20.130;2024-02-28T12:21:14;97159.25;;;15.55;69.67
75013;BME280;63567;49.956;20.130;2024-02-28T12:23:39;97157.81;;;15.59;69.61
75013;BME280;63567;49.956;20.130;2024-02-28T12:26:04;97152.84;;;15.63;69.67
75013;BME280;63567;49.956;20.130;2024-02-28T12:28:30;97153.22;;;15.67;69.75
75013;BME280;63567;49.956;20.130;2024-02-28T12:30:56;97155.44;;;15.70;69.30
75013;BME280;63567;49.956;20.130;2024-02-28T12:33:21;97155.88;;;15.73;68.81
75013;BME280;63567;49.956;20.130;2024-02-28T12:35:47;97153.00;;;15.75;68.86
75013;BME280;63567;49.956;20.130;2024-02-28T12:38:13;97154.41;;;15.77;69.29
75013;BME280;63567;49.956;20.130;2024-02-28T12:40:39;97154.78;;;15.81;69.25
75013;BME280;63567;49.956;20.130;2024-02-28T12:43:05;97158.03;;;15.83;69.23
75013;BME280;63567;49.956;20.130;2024-02-28T12:45:30;97161.25;;;15.85;68.77